sensor_id;sensor_type;location;lat;lon;timestamp;pressure;altitude;pressure_sealevel;temperature;humidity
9235;BME280;4652;42.716;23.218;2023-05-10T01:07:54;95078.44;;;8.43;100.00
9235;BME280;4652;42.716;23.218;2023-05-10T01:14:36;95068.00;;;8.42;100.00
9235;BME280;4652;42.716;23.218;2023-05-10T01:21:27;95054.84;;;8.35;100.00
9235;BME280;4652;42.716;23.218;2023-05-10T01:28:22;95050.81;;;8.33;100.00
9235;BME280;4652;42.716;23.218;2023-05-10T01:35:16;95040.84;;;8.23;100.00
9235;BME280;4652;42.716;23.218;2023-05-10T01:42:02;95038.44;;;8.26;100.00
9235;BME280;4652;42.716;23.218;2023-05-10T01:48:47;95012.41;;;8.12;100.00
9235;BME280;4652;42.716;23.218;2023-05-10T01:55:35;95032.03;;;8.27;100.00
9235;BME280;4652;42.716;23.218;2023-05-10T02:02:18;95035.53;;;8.33;100.00
9235;BME280;4652;42.716;23.218;2023-05-10T02:09:02;95030.13;;;8.23;100.00
9235;BME280;4652;42.716;23.218;2023-05-10T02:15:48;95028.00;;;8.25;100.00
9235;BME280;4652;42.716;23.218;2023-05-10T02:22:31;95040.59;;;8.19;100.00
9235;BME280;4652;42.716;23.218;2023-05-10T02:29:14;95015.09;;;8.12;100.00
9235;BME280;4652;42.716;23.218;2023-05-10T02:35:57;95026.09;;;7.85;100.00
9235;BME280;4652;42.716;23.218;2023-05-10T02:42:42;95000.06;;;7.70;100.00
9235;BME280;4652;42.716;23.218;2023-05-10T02:49:25;95000.06;;;7.60;100.00
9235;BME280;4652;42.716;23.218;2023-05-10T02:56:12;94990.94;;;7.51;100.00
9235;BME280;4652;42.716;23.218;2023-05-10T03:02:58;94997.31;;;7.25;100.00
9235;BME280;4652;42.716;23.218;2023-05-10T03:09:40;94987.94;;;7.33;100.00
9235;BME280;4652;42.716;23.218;2023-05-10T03:16:28;94998.94;;;7.26;100.00
9235;BME280;4652;42.716;23.218;2023-05-10T03:23:15;95006.41;;;7.24;100.00
9235;BME280;4652;42.716;23.218;2023-05-10T03:30:02;95001.03;;;7.14;100.00
9235;BME280;4652;42.716;23.218;2023-05-10T03:36:45;95021.13;;;7.27;100.00
9235;BME280;4652;42.716;23.218;2023-05-10T03:43:27;95021.94;;;7.27;100.00
9235;BME280;4652;42.716;23.218;2023-05-10T03:50:09;95013.09;;;7.22;100.00
9235;BME280;4652;42.716;23.218;2023-05-10T03:56:53;95026.25;;;7.23;100.00
9235;BME280;4652;42.716;23.218;2023-05-10T04:03:35;95038.84;;;7.28;100.00
9235;BME280;4652;42.716;23.218;2023-05-10T04:10:17;95048.19;;;7.25;100.00
9235;BME280;4652;42.716;23.218;2023-05-10T04:17:00;95044.94;;;7.18;100.00
9235;BME280;4652;42.716;23.218;2023-05-10T04:23:42;95057.84;;;7.26;100.00
9235;BME280;4652;42.716;23.218;2023-05-10T04:30:23;95055.69;;;7.23;100.00
9235;BME280;4652;42.716;23.218;2023-05-10T04:37:07;95073.66;;;7.28;100.00
9235;BME280;4652;42.716;23.218;2023-05-10T04:43:49;95066.44;;;7.33;100.00
9235;BME280;4652;42.716;23.218;2023-05-10T04:50:31;95060.56;;;7.41;100.00
9235;BME280;4652;42.716;23.218;2023-05-10T04:57:14;95070.22;;;7.37;100.00
9235;BME280;4652;42.716;23.218;2023-05-10T05:03:56;95045.28;;;7.37;100.00
9235;BME280;4652;42.716;23.218;2023-05-10T05:10:38;95067.59;;;7.57;100.00
9235;BME280;4652;42.716;23.218;2023-05-10T05:17:22;95060.34;;;7.53;100.00
9235;BME280;4652;42.716;23.218;2023-05-10T05:24:04;95073.22;;;7.66;100.00
9235;BME280;4652;42.716;23.218;2023-05-10T05:30:47;95071.06;;;7.58;100.00
9235;BME280;4652;42.716;23.218;2023-05-10T05:37:30;95084.47;;;7.63;100.00
9235;BME280;4652;42.716;23.218;2023-05-10T05:44:12;95093.63;;;7.87;100.00
9235;BME280;4652;42.716;23.218;2023-05-10T05:50:54;95081.03;;;7.67;100.00
9235;BME280;4652;42.716;23.218;2023-05-10T05:57:38;95097.13;;;7.73;100.00
9235;BME280;4652;42.716;23.218;2023-05-10T06:04:20;95102.50;;;7.83;100.00
9235;BME280;4652;42.716;23.218;2023-05-10T06:11:02;95105.16;;;7.83;100.00
9235;BME280;4652;42.716;23.218;2023-05-10T06:17:46;95108.91;;;7.77;100.00
9235;BME280;4652;42.716;23.218;2023-05-10T06:24:29;95105.97;;;7.88;100.00
9235;BME280;4652;42.716;23.218;2023-05-10T06:31:11;95106.03;;;8.03;100.00
9235;BME280;4652;42.716;23.218;2023-05-10T06:37:54;95108.50;;;8.30;100.00
9235;BME280;4652;42.716;23.218;2023-05-10T06:44:37;95108.19;;;8.26;100.00
9235;BME280;4652;42.716;23.218;2023-05-10T06:51:18;95113.34;;;8.28;100.00
9235;BME280;4652;42.716;23.218;2023-05-10T06:58:03;95113.28;;;8.13;100.00
9235;BME280;4652;42.716;23.218;2023-05-10T08:11:42;95123.94;;;9.29;100.00
9235;BME280;4652;42.716;23.218;2023-05-10T08:18:24;95127.97;;;9.41;100.00
9235;BME280;4652;42.716;23.218;2023-05-10T08:25:07;95120.75;;;9.91;100.00
9235;BME280;4652;42.716;23.218;2023-05-10T08:31:50;95129.13;;;9.84;100.00
9235;BME280;4652;42.716;23.218;2023-05-10T08:38:32;95106.91;;;9.59;100.00
9235;BME280;4652;42.716;23.218;2023-05-10T08:45:15;95127.53;;;9.78;100.00
9235;BME280;4652;42.716;23.218;2023-05-10T08:52:02;95130.53;;;9.67;100.00
9235;BME280;4652;42.716;23.218;2023-05-10T08:58:45;95132.19;;;9.58;100.00
9235;BME280;4652;42.716;23.218;2023-05-10T09:05:27;95122.34;;;9.92;100.00
9235;BME280;4652;42.716;23.218;2023-05-10T09:12:11;95137.53;;;9.68;100.00
9235;BME280;4652;42.716;23.218;2023-05-10T09:18:56;95126.50;;;9.69;100.00
9235;BME280;4652;42.716;23.218;2023-05-10T09:25:38;95120.19;;;9.89;100.00
9235;BME280;4652;42.716;23.218;2023-05-10T09:32:21;95140.97;;;9.78;100.00
9235;BME280;4652;42.716;23.218;2023-05-10T09:39:03;95121.88;;;9.80;100.00
9235;BME280;4652;42.716;23.218;2023-05-10T09:45:47;95112.91;;;9.94;100.00
9235;BME280;4652;42.716;23.218;2023-05-10T09:52:46;95102.44;;;10.71;100.00
9235;BME280;4652;42.716;23.218;2023-05-10T09:59:29;95101.31;;;11.05;100.00
9235;BME280;4652;42.716;23.218;2023-05-10T10:06:11;95094.41;;;10.94;100.00
9235;BME280;4652;42.716;23.218;2023-05-10T10:13:02;95092.72;;;11.03;100.00
9235;BME280;4652;42.716;23.218;2023-05-10T10:19:45;95087.03;;;11.05;100.00
9235;BME280;4652;42.716;23.218;2023-05-10T10:26:28;95077.41;;;10.70;100.00
9235;BME280;4652;42.716;23.218;2023-05-10T10:33:29;95070.59;;;10.49;100.00
9235;BME280;4652;42.716;23.218;2023-05-10T10:40:26;95075.69;;;10.50;100.00
9235;BME280;4652;42.716;23.218;2023-05-10T10:47:21;95081.94;;;11.03;100.00
9235;BME280;4652;42.716;23.218;2023-05-10T10:54:11;95092.28;;;10.91;100.00
9235;BME280;4652;42.716;23.218;2023-05-10T11:01:09;95081.44;;;10.96;100.00
9235;BME280;4652;42.716;23.218;2023-05-10T11:07:52;95073.56;;;11.05;100.00
9235;BME280;4652;42.716;23.218;2023-05-10T11:14:36;95058.69;;;11.07;100.00
9235;BME280;4652;42.716;23.218;2023-05-10T11:21:18;95082.97;;;11.55;100.00
9235;BME280;4652;42.716;23.218;2023-05-10T11:28:02;95054.78;;;11.66;100.00
9235;BME280;4652;42.716;23.218;2023-05-10T13:45:02;94993.00;;;11.03;100.00
9235;BME280;4652;42.716;23.218;2023-05-10T13:51:44;94999.31;;;11.17;100.00
9235;BME280;4652;42.716;23.218;2023-05-10T13:58:26;94991.47;;;11.40;100.00
9235;BME280;4652;42.716;23.218;2023-05-10T14:05:10;95004.91;;;11.45;100.00
9235;BME280;4652;42.716;23.218;2023-05-10T14:11:52;94995.63;;;11.32;100.00
9235;BME280;4652;42.716;23.218;2023-05-10T14:18:33;95005.41;;;11.04;100.00
9235;BME280;4652;42.716;23.218;2023-05-10T14:25:17;95001.59;;;10.82;100.00
9235;BME280;4652;42.716;23.218;2023-05-10T14:31:59;95006.94;;;10.87;100.00
9235;BME280;4652;42.716;23.218;2023-05-10T14:38:41;95000.69;;;10.91;100.00
9235;BME280;4652;42.716;23.218;2023-05-10T14:45:24;94977.50;;;10.67;100.00
9235;BME280;4652;42.716;23.218;2023-05-10T14:52:06;95001.84;;;10.85;100.00
9235;BME280;4652;42.716;23.218;2023-05-10T14:59:06;95005.84;;;11.11;100.00
9235;BME280;4652;42.716;23.218;2023-05-10T15:05:50;94999.25;;;11.23;100.00
9235;BME280;4652;42.716;23.218;2023-05-10T15:12:32;94987.50;;;11.13;100.00
9235;BME280;4652;42.716;23.218;2023-05-10T15:19:14;94977.38;;;10.82;100.00
9235;BME280;4652;42.716;23.218;2023-05-10T15:25:57;94969.84;;;10.79;100.00
9235;BME280;4652;42.716;23.218;2023-05-10T15:32:40;94971.22;;;10.76;100.00
9235;BME280;4652;42.716;23.218;2023-05-10T15:39:23;94977.75;;;10.70;100.00
9235;BME280;4652;42.716;23.218;2023-05-10T15:46:06;94982.38;;;10.65;100.00
9235;BME280;4652;42.716;23.218;2023-05-10T15:52:48;94968.00;;;10.50;100.00
9235;BME280;4652;42.716;23.218;2023-05-10T15:59:31;94959.72;;;10.42;100.00
9235;BME280;4652;42.716;23.218;2023-05-10T16:06:16;94975.22;;;10.55;100.00
9235;BME280;4652;42.716;23.218;2023-05-10T16:12:58;94982.69;;;10.63;100.00
9235;BME280;4652;42.716;23.218;2023-05-10T16:19:41;94968.69;;;10.61;100.00
9235;BME280;4652;42.716;23.218;2023-05-10T16:26:25;94976.25;;;10.59;100.00
9235;BME280;4652;42.716;23.218;2023-05-10T16:33:07;94973.44;;;10.69;100.00
9235;BME280;4652;42.716;23.218;2023-05-10T16:39:49;94982.63;;;10.68;100.00
9235;BME280;4652;42.716;23.218;2023-05-10T16:46:32;94981.69;;;10.54;100.00
9235;BME280;4652;42.716;23.218;2023-05-10T16:53:14;94983.88;;;10.52;100.00
9235;BME280;4652;42.716;23.218;2023-05-10T16:59:56;94967.75;;;10.47;100.00
9235;BME280;4652;42.716;23.218;2023-05-10T17:06:40;94972.13;;;10.43;100.00
9235;BME280;4652;42.716;23.218;2023-05-10T17:13:22;94980.13;;;10.48;100.00
9235;BME280;4652;42.716;23.218;2023-05-10T17:20:05;94982.38;;;10.41;100.00
9235;BME280;4652;42.716;23.218;2023-05-10T17:26:48;94985.00;;;10.46;100.00
9235;BME280;4652;42.716;23.218;2023-05-10T17:33:30;94981.63;;;10.35;100.00
9235;BME280;4652;42.716;23.218;2023-05-10T17:40:12;95000.16;;;10.37;100.00
9235;BME280;4652;42.716;23.218;2023-05-10T17:46:55;94933.97;;;10.02;100.00
9235;BME280;4652;42.716;23.218;2023-05-10T17:53:40;95000.72;;;10.34;100.00
9235;BME280;4652;42.716;23.218;2023-05-10T18:00:22;95000.72;;;10.34;100.00
9235;BME280;4652;42.716;23.218;2023-05-10T18:07:06;95012.84;;;10.31;100.00
9235;BME280;4652;42.716;23.218;2023-05-10T18:13:47;95010.78;;;10.23;100.00
9235;BME280;4652;42.716;23.218;2023-05-10T18:20:30;95007.06;;;10.14;100.00
9235;BME280;4652;42.716;23.218;2023-05-10T18:27:14;95011.34;;;10.20;100.00
9235;BME280;4652;42.716;23.218;2023-05-10T18:33:56;95040.09;;;10.25;100.00
9235;BME280;4652;42.716;23.218;2023-05-10T18:40:38;95039.00;;;10.26;100.00
9235;BME280;4652;42.716;23.218;2023-05-10T18:47:22;95050.59;;;10.26;100.00
9235;BME280;4652;42.716;23.218;2023-05-10T18:54:05;95048.16;;;10.30;100.00
9235;BME280;4652;42.716;23.218;2023-05-10T19:13:35;95041.81;;;10.44;100.00
9235;BME280;4652;42.716;23.218;2023-05-10T19:20:17;95030.09;;;10.30;100.00
9235;BME280;4652;42.716;23.218;2023-05-10T19:26:59;95045.72;;;10.28;100.00
9235;BME280;4652;42.716;23.218;2023-05-10T19:33:43;95040.59;;;10.32;100.00
9235;BME280;4652;42.716;23.218;2023-05-10T19:40:25;95054.31;;;10.30;100.00
9235;BME280;4652;42.716;23.218;2023-05-10T19:47:08;95037.41;;;10.25;100.00
9235;BME280;4652;42.716;23.218;2023-05-10T19:53:52;95030.97;;;10.21;100.00
9235;BME280;4652;42.716;23.218;2023-05-10T20:00:34;95039.53;;;10.28;100.00
9235;BME280;4652;42.716;23.218;2023-05-10T20:07:16;95027.97;;;10.27;100.00
9235;BME280;4652;42.716;23.218;2023-05-10T20:14:00;95026.16;;;10.18;100.00
9235;BME280;4652;42.716;23.218;2023-05-10T20:20:42;95023.94;;;10.25;100.00
9235;BME280;4652;42.716;23.218;2023-05-10T20:27:23;94981.59;;;10.01;100.00
9235;BME280;4652;42.716;23.218;2023-05-10T20:34:07;95027.78;;;10.19;100.00
9235;BME280;4652;42.716;23.218;2023-05-10T20:40:49;95030.19;;;10.20;100.00
9235;BME280;4652;42.716;23.218;2023-05-10T20:47:31;95030.97;;;10.21;100.00
9235;BME280;4652;42.716;23.218;2023-05-10T20:54:14;95016.28;;;10.03;100.00
9235;BME280;4652;42.716;23.218;2023-05-10T21:00:56;95033.97;;;10.14;100.00
9235;BME280;4652;42.716;23.218;2023-05-10T21:07:38;95030.75;;;10.12;100.00
9235;BME280;4652;42.716;23.218;2023-05-10T21:14:21;95033.97;;;10.14;100.00
9235;BME280;4652;42.716;23.218;2023-05-10T21:21:03;95035.63;;;10.10;100.00
9235;BME280;4652;42.716;23.218;2023-05-10T21:27:45;95043.38;;;10.12;100.00
9235;BME280;4652;42.716;23.218;2023-05-10T21:34:28;95031.03;;;10.11;100.00
9235;BME280;4652;42.716;23.218;2023-05-10T21:41:10;95028.34;;;10.11;100.00
9235;BME280;4652;42.716;23.218;2023-05-10T21:47:52;95015.97;;;10.10;100.00
9235;BME280;4652;42.716;23.218;2023-05-10T21:54:35;95011.41;;;10.10;100.00
9235;BME280;4652;42.716;23.218;2023-05-10T22:01:18;95035.88;;;10.09;100.00
9235;BME280;4652;42.716;23.218;2023-05-10T22:08:00;95031.03;;;10.11;100.00
9235;BME280;4652;42.716;23.218;2023-05-10T22:14:43;95026.72;;;10.10;100.00
9235;BME280;4652;42.716;23.218;2023-05-10T22:21:25;95002.34;;;9.96;100.00
9235;BME280;4652;42.716;23.218;2023-05-10T22:28:07;95016.78;;;10.10;100.00
9235;BME280;4652;42.716;23.218;2023-05-10T22:34:50;94987.03;;;9.91;100.00
9235;BME280;4652;42.716;23.218;2023-05-10T22:41:33;95014.69;;;10.02;100.00
9235;BME280;4652;42.716;23.218;2023-05-10T22:48:14;95003.38;;;10.05;100.00
9235;BME280;4652;42.716;23.218;2023-05-10T22:54:58;95008.75;;;10.05;100.00
9235;BME280;4652;42.716;23.218;2023-05-10T23:01:40;94997.22;;;9.99;100.00
9235;BME280;4652;42.716;23.218;2023-05-10T23:08:22;94996.47;;;9.94;100.00
9235;BME280;4652;42.716;23.218;2023-05-10T23:15:06;94990.59;;;9.87;100.00
9235;BME280;4652;42.716;23.218;2023-05-10T23:21:48;94996.25;;;9.85;100.00
9235;BME280;4652;42.716;23.218;2023-05-10T23:28:30;94990.06;;;9.85;100.00
9235;BME280;4652;42.716;23.218;2023-05-10T23:35:14;94983.84;;;9.89;100.00
9235;BME280;4652;42.716;23.218;2023-05-10T23:41:56;95007.03;;;9.80;100.00
9235;BME280;4652;42.716;23.218;2023-05-10T23:48:37;94990.09;;;9.80;100.00
9235;BME280;4652;42.716;23.218;2023-05-10T23:55:21;94964.13;;;9.65;100.00
